Terminal Aerodrome Forecast
Issued by NWS Midland/Odessa, TX

Home | Current Version | Previous Version | Text Only | Print | Product List | Glossary On
Versions: 1 2 3 4 5 6 7 8 9 10 11 12 13 14 15 16 17 18 19
000
FTUS44 KMAF 210905 AAB
TAFMAF
TAF AMD
KMAF 210905Z 2109/2206 18014KT P6SM FEW250
      TEMPO 2111/2115 BKN010
     FM211600 24015G20KT P6SM FEW200
     FM220000 29012KT P6SM FEW150=

USA.gov is the U.S. government's official web portal to all federal, state and local government web resources and services.